Historique des mesures à Cassis (13260), France
Quotidien Résumé Fevrier 3, 2018 Unités:  Métrique    US   Métrique/US
« Précédent (Jour)
Suivant (Jour) »
Quotidien Hebdomadaire Mensuel Annuel Période au choix
  Maximum: Minimum: Moyenne:
Température: -17.8 °C -14.9 °C -14.2 °C
Point de rosée: -17.8 °C -19.6 °C -18.7 °C
Humidité: Humidity % 45 % 53 %
Vitesse du vent: 0 km/h 6.4 km/h 28.6 km/h
Rafales: 0 km/h - -
Vent:- - WSW
Pression: 0 hPa 33775.4 hPa -
Précipitations: 0 mm    
Historical Graphs
 
 
Mesures pour : Fevrier 3, 2018
Heure Temperature Point de rosée Pression Vent Vitesse du vent Rafales Humidité Pluie (par heure) Conditions
-17.8 °C -17.8 °C 0 hPa Calm     Humidity % 0 mm SoftwareType W/m2
00:12 -14.4 °C -18.7 °C 33832.9 hPa North 21.6 km/h 22.5 km/h 58 % 0 mm open2300-1.11 W/m2
01:12 -14.6 °C -18.6 °C 33822.8 hPa NW 23.8 km/h 37 km/h 60 % 0 mm open2300-1.11 W/m2
02:12 -14.7 °C -18.8 °C 33809.2 hPa North 8.9 km/h 36.5 km/h 59 % 0 mm open2300-1.11 W/m2
03:12 -14.7 °C -19 °C 33775.4 hPa NNW 30.1 km/h 41.2 km/h 58 % 0 mm open2300-1.11 W/m2
04:12 -14.8 °C -19.2 °C 33788.9 hPa NW 40.7 km/h 40.7 km/h 57 % 0 mm open2300-1.11 W/m2
05:12 -14.8 °C -19.2 °C 33788.9 hPa WNW 34.1 km/h 52 km/h 57 % 0 mm open2300-1.11 W/m2
06:12 -14.9 °C -18.9 °C 33809.2 hPa WNW 51 km/h 51 km/h 60 % 0 mm open2300-1.11 W/m2
07:12 -14.9 °C -18.7 °C 33832.9 hPa NW 56.2 km/h 75.8 km/h 62 % 0 mm open2300-1.11 W/m2
08:12 -14.9 °C -18.3 °C 33856.6 hPa NNW 36 km/h 36 km/h 65 % 0 mm open2300-1.11 W/m2
09:12 -14.7 °C -18.1 °C 33890.5 hPa NW 28.5 km/h 45.9 km/h 65 % 0 mm open2300-1.11 W/m2
10:12 -14.4 °C -17.9 °C 33890.5 hPa NNW 31.4 km/h 35.2 km/h 64 % 0 mm open2300-1.11 W/m2
11:12 -13.8 °C -17.8 °C 33900.6 hPa NW 33.2 km/h 39.4 km/h 60 % 0 mm open2300-1.11 W/m2
12:12 -13.2 °C -17.7 °C 33914.2 hPa NW 34.8 km/h 34.8 km/h 57 % 0 mm open2300-1.11 W/m2
13:12 -12.8 °C -17.7 °C 33900.6 hPa NNE 23.8 km/h 23.8 km/h 54 % 0 mm open2300-1.11 W/m2
14:12 -12.8 °C -18.3 °C 33900.6 hPa NNW 36 km/h 68.4 km/h 50 % 0 mm open2300-1.11 W/m2
15:12 -12.7 °C -18.5 °C 33914.2 hPa North 17.4 km/h 43.5 km/h 48 % 0 mm open2300-1.11 W/m2
16:12 -12.9 °C -18.6 °C 33900.6 hPa West 33.6 km/h 36.5 km/h 49 % 0 mm open2300-1.11 W/m2
17:12 -13.1 °C -19.4 °C 33924.3 hPa WNW 44.6 km/h 44.6 km/h 45 % 0 mm open2300-1.11 W/m2
18:12 -13.4 °C -19.6 °C 33924.3 hPa NW 9.8 km/h 29.5 km/h 46 % 0 mm open2300-1.11 W/m2
19:12 -13.7 °C -19.5 °C 33937.9 hPa NW 23.8 km/h 36.5 km/h 48 % 0 mm open2300-1.11 W/m2
20:12 -13.9 °C -19.5 °C 33958.2 hPa NNW 31.9 km/h 31.9 km/h 49 % 0 mm open2300-1.11 W/m2
21:12 -13.9 °C -19.3 °C 33981.9 hPa North 6.4 km/h 6.4 km/h 50 % 0 mm open2300-1.11 W/m2
Observations météo à CASSIS
WU-History script by Weather Underground - 1 mb